Time;durP1;ratioP1;P1;durP2;ratioP2;P2;SDS_P1;SDS_P2;PMS_P1;PMS_P2;Temp;Humidity;BMP_temperature;BMP_pressure;BME280_temperature;BME280_humidity;BME280_pressure;Samples;Min_cycle;Max_cycle;Signal;HPM_P1;HPM_P2
2022/03/23 00:01:27;;;;;;;55.00;29.00;;;;;;;;;;5116620;28;20401;-54
2022/03/23 00:03:53;;;;;;;56.23;30.23;;;;;;;;;;5116292;28;20432;-56
2022/03/23 00:06:19;;;;;;;52.63;28.50;;;;;;;;;;5116241;28;20409;-54
2022/03/23 00:08:45;;;;;;;55.30;27.93;;;;;;;;;;5097963;28;20466;-56
2022/03/23 00:11:12;;;;;;;52.37;28.27;;;;;;;;;;5116103;28;20411;-54
2022/03/23 00:13:38;;;;;;;56.07;29.27;;;;;;;;;;5116089;28;20551;-56
2022/03/23 00:16:05;;;;;;;69.63;29.47;;;;;;;;;;5116075;28;20507;-53
2022/03/23 00:18:32;;;;;;;65.60;30.57;;;;;;;;;;5115827;28;20459;-57
2022/03/23 00:20:58;;;;;;;63.57;30.43;;;;;;;;;;5116067;28;20413;-58
2022/03/23 00:23:24;;;;;;;51.67;28.87;;;;;;;;;;5097627;28;20412;-55
2022/03/23 00:25:50;;;;;;;58.57;29.17;;;;;;;;;;5115986;28;20455;-57
2022/03/23 00:28:19;;;;;;;55.70;29.43;;;;;;;;;;5116193;28;20543;-57
2022/03/23 00:30:45;;;;;;;59.70;30.00;;;;;;;;;;5097910;28;20777;-57
2022/03/23 00:33:11;;;;;;;58.57;28.03;;;;;;;;;;5115722;28;20472;-54
2022/03/23 00:35:37;;;;;;;52.83;29.33;;;;;;;;;;5115763;28;20401;-59
2022/03/23 00:38:03;;;;;;;56.90;28.50;;;;;;;;;;5115718;28;20409;-55
2022/03/23 00:40:29;;;;;;;56.03;29.03;;;;;;;;;;5097877;28;20508;-56
2022/03/23 00:42:58;;;;;;;49.63;29.20;;;;;;;;;;5115613;28;20832;-56
2022/03/23 00:45:24;;;;;;;65.67;28.60;;;;;;;;;;5115544;28;20958;-59
2022/03/23 00:47:54;;;;;;;57.33;28.80;;;;;;;;;;5115461;28;20409;-53
2022/03/23 00:50:20;;;;;;;55.63;28.70;;;;;;;;;;5115462;28;20457;-56
2022/03/23 00:52:47;;;;;;;57.10;29.10;;;;;;;;;;5115297;28;20535;-55
2022/03/23 00:55:14;;;;;;;60.53;28.10;;;;;;;;;;5115469;28;20517;-57
2022/03/23 00:57:41;;;;;;;59.60;29.20;;;;;;;;;;5115315;28;20442;-54
2022/03/23 01:00:12;;;;;;;57.13;28.10;;;;;;;;;;5115486;28;20417;-54
2022/03/23 01:02:41;;;;;;;49.20;27.30;;;;;;;;;;5115250;28;20401;-57
2022/03/23 01:05:08;;;;;;;47.00;27.00;;;;;;;;;;5115164;28;20405;-58
2022/03/23 01:07:34;;;;;;;52.83;28.07;;;;;;;;;;5115209;28;20412;-52
2022/03/23 01:10:00;;;;;;;48.50;27.10;;;;;;;;;;5115175;28;20409;-52
2022/03/23 01:12:27;;;;;;;50.30;26.20;;;;;;;;;;5115299;28;20650;-55
2022/03/23 01:14:53;;;;;;;51.53;27.10;;;;;;;;;;5115029;28;20409;-51
2022/03/23 01:17:22;;;;;;;54.33;26.20;;;;;;;;;;5114951;28;20511;-52
2022/03/23 01:19:51;;;;;;;49.17;26.47;;;;;;;;;;5093148;28;20521;-57
2022/03/23 01:22:17;;;;;;;44.73;24.20;;;;;;;;;;5094475;28;20422;-57
2022/03/23 01:24:44;;;;;;;49.23;27.00;;;;;;;;;;5094578;28;20459;-60
2022/03/23 01:27:10;;;;;;;50.03;26.00;;;;;;;;;;5094464;28;20414;-58
2022/03/23 01:29:38;;;;;;;49.47;26.63;;;;;;;;;;5094388;28;20406;-55
2022/03/23 01:32:05;;;;;;;43.33;24.37;;;;;;;;;;5094227;28;20508;-54
2022/03/23 01:34:31;;;;;;;54.97;25.90;;;;;;;;;;5094302;28;20410;-54
2022/03/23 01:36:57;;;;;;;43.43;26.03;;;;;;;;;;5093161;28;20418;-57
2022/03/23 01:39:23;;;;;;;46.50;24.80;;;;;;;;;;5094203;28;20414;-57
2022/03/23 01:41:49;;;;;;;50.70;26.67;;;;;;;;;;5094149;28;20410;-58
2022/03/23 01:44:20;;;;;;;47.63;25.50;;;;;;;;;;5094209;28;20410;-58
2022/03/23 01:47:06;;;;;;;46.60;25.30;;;;;;;;;;5094022;28;20921;-54
2022/03/23 01:49:33;;;;;;;46.77;24.90;;;;;;;;;;5093899;28;20759;-54
2022/03/23 01:51:59;;;;;;;50.77;25.00;;;;;;;;;;5094225;28;20441;-55
2022/03/23 01:54:25;;;;;;;42.60;24.43;;;;;;;;;;5093869;28;20789;-54
2022/03/23 01:56:51;;;;;;;43.37;23.63;;;;;;;;;;5093899;28;20402;-54
2022/03/23 01:59:18;;;;;;;54.50;25.87;;;;;;;;;;5092540;28;20426;-55
2022/03/23 02:01:44;;;;;;;45.83;24.50;;;;;;;;;;5092575;28;20413;-55
2022/03/23 02:04:10;;;;;;;57.77;25.63;;;;;;;;;;5093701;28;20428;-52
2022/03/23 02:06:37;;;;;;;48.73;24.40;;;;;;;;;;5093984;28;20795;-56
2022/03/23 02:09:03;;;;;;;48.50;25.13;;;;;;;;;;5093529;28;20402;-61
2022/03/23 02:11:32;;;;;;;47.13;23.70;;;;;;;;;;5093750;28;20414;-59
2022/03/23 02:13:58;;;;;;;38.87;23.40;;;;;;;;;;5093611;28;20465;-60
2022/03/23 02:16:24;;;;;;;43.10;23.10;;;;;;;;;;5093382;28;20413;-53
2022/03/23 02:18:50;;;;;;;49.13;25.20;;;;;;;;;;5091970;28;20485;-53
2022/03/23 02:21:16;;;;;;;49.33;24.30;;;;;;;;;;5092793;28;20414;-54
2022/03/23 02:23:42;;;;;;;44.17;23.57;;;;;;;;;;5091957;28;20768;-57
2022/03/23 02:26:09;;;;;;;49.60;24.30;;;;;;;;;;5093400;28;20487;-55
2022/03/23 02:28:36;;;;;;;42.80;24.27;;;;;;;;;;5093253;28;20406;-54
2022/03/23 02:31:04;;;;;;;40.80;24.07;;;;;;;;;;5093234;28;20572;-55
2022/03/23 02:33:30;;;;;;;46.50;24.30;;;;;;;;;;5091935;28;20469;-54
2022/03/23 02:35:56;;;;;;;45.70;24.30;;;;;;;;;;5093231;28;20949;-57
2022/03/23 02:38:22;;;;;;;42.97;24.53;;;;;;;;;;5093147;28;20405;-54
2022/03/23 02:40:48;;;;;;;40.03;23.20;;;;;;;;;;5093004;28;20398;-54
2022/03/23 02:43:15;;;;;;;52.03;23.73;;;;;;;;;;5093110;28;20863;-58
2022/03/23 02:45:43;;;;;;;40.30;23.27;;;;;;;;;;5092948;28;20898;-55
2022/03/23 02:48:09;;;;;;;48.30;23.67;;;;;;;;;;5092910;28;20494;-56
2022/03/23 02:50:35;;;;;;;48.77;24.57;;;;;;;;;;5091570;28;20498;-53
2022/03/23 03:04:16;;;;;;;42.90;23.73;;;;;;;;;;5092681;28;20544;-52
2022/03/23 03:06:43;;;;;;;43.57;22.97;;;;;;;;;;5092646;28;20838;-55
2022/03/23 03:09:09;;;;;;;47.27;23.67;;;;;;;;;;5092668;28;20906;-56
2022/03/23 03:11:35;;;;;;;42.27;23.53;;;;;;;;;;5091252;28;20482;-55
2022/03/23 03:14:01;;;;;;;40.80;23.53;;;;;;;;;;5091221;28;20480;-55
2022/03/23 03:16:27;;;;;;;47.50;23.73;;;;;;;;;;5092671;28;20406;-54
2022/03/23 03:18:53;;;;;;;48.20;23.13;;;;;;;;;;5100066;28;20464;-53
2022/03/23 03:21:19;;;;;;;47.37;23.87;;;;;;;;;;5112850;28;20408;-57
2022/03/23 03:23:45;;;;;;;44.50;23.60;;;;;;;;;;5094475;28;20417;-55
2022/03/23 03:26:12;;;;;;;43.07;24.20;;;;;;;;;;5112790;28;20405;-55
2022/03/23 03:28:39;;;;;;;46.17;25.10;;;;;;;;;;5112824;28;20412;-55
2022/03/23 03:31:06;;;;;;;41.43;23.27;;;;;;;;;;5112707;28;20799;-55
2022/03/23 03:33:32;;;;;;;43.40;24.30;;;;;;;;;;5116556;28;20999;-54
2022/03/23 03:35:58;;;;;;;44.20;23.53;;;;;;;;;;5098589;28;20408;-55
2022/03/23 03:38:24;;;;;;;53.80;23.93;;;;;;;;;;5116872;28;20415;-54
2022/03/23 03:40:50;;;;;;;42.33;24.00;;;;;;;;;;5116791;28;20496;-55
2022/03/23 03:43:16;;;;;;;44.57;24.20;;;;;;;;;;5116806;28;20486;-51
2022/03/23 03:45:43;;;;;;;45.40;24.90;;;;;;;;;;5116783;28;20432;-54
2022/03/23 03:48:09;;;;;;;49.00;22.97;;;;;;;;;;5116604;28;20492;-55
2022/03/23 03:50:35;;;;;;;49.10;24.10;;;;;;;;;;5116549;28;20415;-56
2022/03/23 03:53:01;;;;;;;49.80;22.73;;;;;;;;;;5116576;28;20899;-55
2022/03/23 03:55:27;;;;;;;46.07;22.97;;;;;;;;;;5097641;28;20507;-56
2022/03/23 03:57:53;;;;;;;55.70;22.63;;;;;;;;;;5116620;28;20504;-51
2022/03/23 04:00:19;;;;;;;48.33;23.93;;;;;;;;;;5116409;28;20413;-55
2022/03/23 04:02:45;;;;;;;48.80;24.10;;;;;;;;;;5116549;28;20411;-55
2022/03/23 04:05:11;;;;;;;54.97;23.17;;;;;;;;;;5116315;28;20500;-54
2022/03/23 04:07:37;;;;;;;45.80;24.10;;;;;;;;;;5116428;28;20659;-56
2022/03/23 04:10:04;;;;;;;52.23;24.87;;;;;;;;;;5116410;28;20416;-53
2022/03/23 04:12:30;;;;;;;46.03;24.77;;;;;;;;;;5116300;28;20527;-54
2022/03/23 04:14:56;;;;;;;48.63;24.03;;;;;;;;;;5116410;28;20510;-52
2022/03/23 04:17:22;;;;;;;40.00;22.60;;;;;;;;;;5116070;28;20405;-53
2022/03/23 04:19:48;;;;;;;49.40;23.77;;;;;;;;;;5097503;28;20488;-55
2022/03/23 04:22:14;;;;;;;53.03;25.10;;;;;;;;;;5116168;28;20413;-58
2022/03/23 04:24:40;;;;;;;50.07;25.20;;;;;;;;;;5116045;28;20428;-56
2022/03/23 04:27:06;;;;;;;47.70;24.60;;;;;;;;;;5115904;28;20917;-55
2022/03/23 04:29:32;;;;;;;43.20;24.80;;;;;;;;;;5115720;28;20413;-57
2022/03/23 04:31:58;;;;;;;41.27;23.20;;;;;;;;;;5115713;28;20405;-58
2022/03/23 04:34:25;;;;;;;50.80;23.67;;;;;;;;;;5115724;28;20464;-54
2022/03/23 04:36:51;;;;;;;51.50;26.27;;;;;;;;;;5115694;28;20404;-53
2022/03/23 04:39:17;;;;;;;47.37;24.53;;;;;;;;;;5115637;28;20429;-56
2022/03/23 04:41:44;;;;;;;49.53;25.00;;;;;;;;;;5115425;28;20765;-58
2022/03/23 04:44:10;;;;;;;45.20;23.23;;;;;;;;;;5114978;28;20512;-54
2022/03/23 04:46:36;;;;;;;47.13;25.73;;;;;;;;;;5115516;28;20401;-56
2022/03/23 04:49:02;;;;;;;48.70;25.30;;;;;;;;;;5115391;28;20439;-58
2022/03/23 04:51:30;;;;;;;41.97;23.23;;;;;;;;;;5115461;28;20461;-58
2022/03/23 04:53:56;;;;;;;50.90;24.83;;;;;;;;;;5115355;28;20468;-54
2022/03/23 04:56:22;;;;;;;45.50;24.20;;;;;;;;;;5115273;28;20408;-57
2022/03/23 04:58:48;;;;;;;41.60;23.43;;;;;;;;;;5115257;28;20919;-54
2022/03/23 05:01:14;;;;;;;40.47;23.57;;;;;;;;;;5115230;28;20401;-56
2022/03/23 05:03:40;;;;;;;44.90;24.00;;;;;;;;;;5115372;28;20424;-57
2022/03/23 05:06:06;;;;;;;53.43;26.03;;;;;;;;;;5115190;28;20770;-61
2022/03/23 05:08:32;;;;;;;45.60;23.53;;;;;;;;;;5115103;28;20420;-60
2022/03/23 05:10:58;;;;;;;51.90;25.47;;;;;;;;;;5115258;28;20401;-59
2022/03/23 05:13:24;;;;;;;42.90;23.27;;;;;;;;;;5115025;28;20843;-61
2022/03/23 05:15:50;;;;;;;45.50;26.10;;;;;;;;;;5115047;28;20401;-60
2022/03/23 05:18:17;;;;;;;56.40;24.47;;;;;;;;;;5114896;28;20416;-58
2022/03/23 05:20:43;;;;;;;41.13;24.30;;;;;;;;;;5115010;28;20428;-61
2022/03/23 05:23:09;;;;;;;61.30;27.03;;;;;;;;;;5114849;28;20465;-59
2022/03/23 05:25:35;;;;;;;55.20;24.10;;;;;;;;;;5114914;28;20405;-55
2022/03/23 05:28:01;;;;;;;47.30;25.53;;;;;;;;;;5114746;28;20493;-57
2022/03/23 05:30:27;;;;;;;51.30;25.07;;;;;;;;;;5114461;28;20901;-58
2022/03/23 05:32:53;;;;;;;50.37;24.50;;;;;;;;;;5114645;28;20491;-56
2022/03/23 05:35:19;;;;;;;43.83;24.43;;;;;;;;;;5114648;28;20417;-58
2022/03/23 05:37:45;;;;;;;60.20;26.30;;;;;;;;;;5096347;28;20412;-51
2022/03/23 05:40:11;;;;;;;47.47;23.97;;;;;;;;;;5114545;28;20413;-57
2022/03/23 05:42:37;;;;;;;48.23;24.63;;;;;;;;;;5114455;28;20409;-56
2022/03/23 05:45:04;;;;;;;48.77;24.50;;;;;;;;;;5096129;28;20425;-54
2022/03/23 05:47:30;;;;;;;43.23;23.77;;;;;;;;;;5114483;28;20405;-56
2022/03/23 05:49:56;;;;;;;52.73;24.03;;;;;;;;;;5096168;28;20421;-54
2022/03/23 05:52:22;;;;;;;44.77;24.07;;;;;;;;;;5114347;28;20466;-59
2022/03/23 05:54:48;;;;;;;42.80;23.10;;;;;;;;;;5095507;28;20433;-55
2022/03/23 05:57:14;;;;;;;48.97;25.27;;;;;;;;;;5113673;28;20408;-56
2022/03/23 05:59:40;;;;;;;56.77;24.97;;;;;;;;;;5114069;28;20413;-56
2022/03/23 06:02:06;;;;;;;52.20;25.07;;;;;;;;;;5114133;28;20739;-56
2022/03/23 06:04:32;;;;;;;47.60;25.27;;;;;;;;;;5113996;28;20420;-54
2022/03/23 06:06:58;;;;;;;47.50;25.33;;;;;;;;;;5114186;28;20412;-57
2022/03/23 06:09:24;;;;;;;48.33;24.80;;;;;;;;;;5113844;28;20413;-58
2022/03/23 06:11:51;;;;;;;43.43;24.27;;;;;;;;;;5113866;28;20424;-56
2022/03/23 06:14:17;;;;;;;50.30;23.63;;;;;;;;;;5113797;28;20463;-55
2022/03/23 06:16:43;;;;;;;45.37;25.40;;;;;;;;;;5113683;28;20403;-58
2022/03/23 06:19:10;;;;;;;49.77;23.43;;;;;;;;;;5113512;28;20543;-56
2022/03/23 06:21:36;;;;;;;51.50;23.73;;;;;;;;;;5113544;28;20401;-62
2022/03/23 06:24:02;;;;;;;51.77;24.90;;;;;;;;;;5095382;28;20919;-55
2022/03/23 06:26:28;;;;;;;46.80;24.90;;;;;;;;;;5113767;28;20417;-56
2022/03/23 06:28:54;;;;;;;55.97;24.37;;;;;;;;;;5113569;28;20856;-55
2022/03/23 06:31:21;;;;;;;47.17;24.43;;;;;;;;;;5113731;28;20431;-55
2022/03/23 06:33:47;;;;;;;47.83;24.13;;;;;;;;;;5113419;28;20471;-57
2022/03/23 06:36:13;;;;;;;52.00;24.70;;;;;;;;;;5113506;28;20904;-58
2022/03/23 06:38:39;;;;;;;50.50;24.93;;;;;;;;;;5113281;28;20413;-57
2022/03/23 06:41:05;;;;;;;52.07;24.83;;;;;;;;;;5113196;28;20397;-55
2022/03/23 06:43:31;;;;;;;40.80;23.63;;;;;;;;;;5113133;28;20405;-56
2022/03/23 06:45:57;;;;;;;44.80;23.80;;;;;;;;;;5113179;28;20435;-56
2022/03/23 06:48:23;;;;;;;43.70;21.87;;;;;;;;;;5094772;28;20504;-54
2022/03/23 06:50:49;;;;;;;51.10;24.53;;;;;;;;;;5113090;28;20420;-57
2022/03/23 06:53:15;;;;;;;46.97;23.40;;;;;;;;;;5112840;28;20514;-56
2022/03/23 06:55:41;;;;;;;41.13;23.27;;;;;;;;;;5113060;28;20405;-55
2022/03/23 06:58:10;;;;;;;43.40;22.40;;;;;;;;;;5113015;28;20507;-56
2022/03/23 07:00:36;;;;;;;46.00;24.20;;;;;;;;;;5112994;28;20483;-55
2022/03/23 07:03:05;;;;;;;48.70;24.00;;;;;;;;;;5092200;28;20513;-60
2022/03/23 07:05:31;;;;;;;42.17;23.50;;;;;;;;;;5112004;28;20897;-60
2022/03/23 07:10:42;;;;;;;43.77;23.00;;;;;;;;;;5112370;28;20404;-54
2022/03/23 07:13:08;;;;;;;48.77;23.13;;;;;;;;;;5111800;28;20548;-58
2022/03/23 07:15:34;;;;;;;47.87;22.67;;;;;;;;;;5112034;28;20485;-59
2022/03/23 07:18:00;;;;;;;46.43;23.73;;;;;;;;;;5108488;28;20397;-57
2022/03/23 07:20:29;;;;;;;50.07;24.47;;;;;;;;;;5107059;28;20416;-58
2022/03/23 07:22:55;;;;;;;46.03;24.27;;;;;;;;;;5111755;28;20434;-57
2022/03/23 07:25:21;;;;;;;49.83;24.70;;;;;;;;;;5111891;28;21023;-57
2022/03/23 07:27:47;;;;;;;43.00;23.23;;;;;;;;;;5095052;28;20444;-59
2022/03/23 07:30:13;;;;;;;41.73;22.67;;;;;;;;;;5091603;28;20913;-66
2022/03/23 07:32:39;;;;;;;46.20;24.07;;;;;;;;;;5091046;28;20453;-56
2022/03/23 07:35:07;;;;;;;42.90;24.13;;;;;;;;;;5097503;28;20409;-60
2022/03/23 07:37:36;;;;;;;45.53;24.60;;;;;;;;;;5112085;28;20397;-57
2022/03/23 07:40:06;;;;;;;42.87;23.30;;;;;;;;;;5111816;28;20480;-60
2022/03/23 07:42:32;;;;;;;43.20;22.50;;;;;;;;;;5111698;28;20401;-59
2022/03/23 07:44:58;;;;;;;49.97;24.40;;;;;;;;;;5111311;28;20421;-55
2022/03/23 07:47:24;;;;;;;49.37;23.13;;;;;;;;;;5112062;28;20408;-56
2022/03/23 07:49:50;;;;;;;47.37;23.03;;;;;;;;;;5106790;28;20408;-58
2022/03/23 07:52:18;;;;;;;42.53;23.40;;;;;;;;;;5093385;28;20499;-56
2022/03/23 07:54:44;;;;;;;49.70;23.07;;;;;;;;;;5093775;28;20790;-57
2022/03/23 07:57:10;;;;;;;40.67;23.63;;;;;;;;;;5111545;28;20409;-60
2022/03/23 07:59:36;;;;;;;42.77;21.90;;;;;;;;;;5111728;28;20943;-61
2022/03/23 08:02:02;;;;;;;43.60;24.17;;;;;;;;;;5093332;28;20526;-62
2022/03/23 08:04:28;;;;;;;41.47;24.33;;;;;;;;;;5111776;28;20421;-59
2022/03/23 08:06:55;;;;;;;46.63;22.97;;;;;;;;;;5093467;28;20401;-60
2022/03/23 08:09:21;;;;;;;47.30;25.03;;;;;;;;;;5111904;28;20932;-56
2022/03/23 08:11:50;;;;;;;65.13;24.13;;;;;;;;;;5111378;28;20445;-57
2022/03/23 08:14:16;;;;;;;41.73;23.37;;;;;;;;;;5111493;28;20498;-55
2022/03/23 08:16:42;;;;;;;45.83;24.50;;;;;;;;;;5111504;28;20420;-57
2022/03/23 08:19:08;;;;;;;42.20;24.93;;;;;;;;;;5094493;28;20475;-53
2022/03/23 08:21:34;;;;;;;54.50;23.33;;;;;;;;;;5115366;28;20415;-55
2022/03/23 08:24:01;;;;;;;43.27;25.37;;;;;;;;;;5115685;28;20417;-55
2022/03/23 08:26:27;;;;;;;48.07;26.37;;;;;;;;;;5115772;28;20509;-57
2022/03/23 08:28:53;;;;;;;47.17;26.10;;;;;;;;;;5096916;28;20432;-58
2022/03/23 08:31:19;;;;;;;45.33;23.30;;;;;;;;;;5115268;28;20405;-57
2022/03/23 08:33:45;;;;;;;50.37;27.00;;;;;;;;;;5115064;28;20547;-51
2022/03/23 08:36:11;;;;;;;46.00;25.80;;;;;;;;;;5096778;28;20439;-54
2022/03/23 08:38:38;;;;;;;44.87;25.43;;;;;;;;;;5114978;28;20714;-56
2022/03/23 08:41:04;;;;;;;41.43;26.30;;;;;;;;;;5114773;28;20492;-54
2022/03/23 08:43:31;;;;;;;47.53;26.30;;;;;;;;;;5096788;28;20478;-56
2022/03/23 08:45:57;;;;;;;44.07;26.20;;;;;;;;;;5097222;28;20499;-58
2022/03/23 08:48:26;;;;;;;45.90;26.50;;;;;;;;;;5114992;28;20396;-54
2022/03/23 08:50:52;;;;;;;43.20;26.40;;;;;;;;;;5115017;28;20519;-53
2022/03/23 08:53:19;;;;;;;50.90;27.67;;;;;;;;;;5114866;28;20457;-55
2022/03/23 08:55:46;;;;;;;46.83;27.43;;;;;;;;;;5114929;28;20419;-58
2022/03/23 08:58:12;;;;;;;53.23;26.93;;;;;;;;;;5115107;28;20803;-53
2022/03/23 09:00:40;;;;;;;47.27;27.33;;;;;;;;;;5114774;28;20422;-53
2022/03/23 09:03:06;;;;;;;52.97;28.83;;;;;;;;;;5096459;28;20417;-54
2022/03/23 09:05:32;;;;;;;51.77;29.33;;;;;;;;;;5114861;28;20750;-54
2022/03/23 09:08:01;;;;;;;60.60;28.60;;;;;;;;;;5114904;28;20718;-54
2022/03/23 09:10:28;;;;;;;50.03;28.70;;;;;;;;;;5114876;28;20423;-55
2022/03/23 09:12:54;;;;;;;48.33;27.07;;;;;;;;;;5114369;28;20471;-52
2022/03/23 09:15:20;;;;;;;49.30;26.17;;;;;;;;;;5114453;28;20498;-54
2022/03/23 09:17:46;;;;;;;44.17;25.70;;;;;;;;;;5114195;28;20413;-60
2022/03/23 09:20:13;;;;;;;46.47;25.27;;;;;;;;;;5113999;28;20456;-56
2022/03/23 09:22:40;;;;;;;50.87;27.13;;;;;;;;;;5114122;28;20418;-54
2022/03/23 09:25:08;;;;;;;42.73;26.23;;;;;;;;;;5113989;28;20417;-59
2022/03/23 09:27:35;;;;;;;46.47;26.00;;;;;;;;;;5113906;28;20413;-58
2022/03/23 09:30:02;;;;;;;45.83;25.47;;;;;;;;;;5113806;28;20405;-59
2022/03/23 09:32:28;;;;;;;49.77;25.37;;;;;;;;;;5113990;28;20408;-55
2022/03/23 09:34:54;;;;;;;42.57;27.23;;;;;;;;;;5113443;28;20477;-57
2022/03/23 09:40:06;;;;;;;45.07;26.07;;;;;;;;;;5113935;28;20407;-54
2022/03/23 09:42:32;;;;;;;43.70;26.40;;;;;;;;;;5113933;28;20466;-57
2022/03/23 09:44:59;;;;;;;46.23;26.03;;;;;;;;;;5113998;28;20409;-52
2022/03/23 09:47:25;;;;;;;42.87;26.10;;;;;;;;;;5113839;28;20882;-55
2022/03/23 09:49:51;;;;;;;41.40;25.17;;;;;;;;;;5113429;28;20960;-56
2022/03/23 09:52:17;;;;;;;54.43;26.93;;;;;;;;;;5113999;28;20417;-53
2022/03/23 09:54:47;;;;;;;54.20;26.83;;;;;;;;;;5095546;28;20447;-53
2022/03/23 09:57:13;;;;;;;42.93;25.90;;;;;;;;;;5113488;28;20409;-55
2022/03/23 09:59:40;;;;;;;41.83;26.60;;;;;;;;;;5094693;28;20409;-53
2022/03/23 10:02:06;;;;;;;49.73;25.90;;;;;;;;;;5113396;28;20474;-54
2022/03/23 10:04:54;;;;;;;45.10;26.37;;;;;;;;;;5113443;28;20416;-54
2022/03/23 10:07:24;;;;;;;50.90;26.73;;;;;;;;;;5113396;28;20412;-56
2022/03/23 10:10:02;;;;;;;44.50;26.20;;;;;;;;;;5095132;28;20409;-55
2022/03/23 10:12:40;;;;;;;44.10;26.37;;;;;;;;;;5113586;28;20891;-55
2022/03/23 10:15:25;;;;;;;49.67;26.83;;;;;;;;;;5113351;28;20405;-54
2022/03/23 10:18:09;;;;;;;43.47;25.47;;;;;;;;;;5113231;28;20412;-54
2022/03/23 10:20:36;;;;;;;44.27;26.53;;;;;;;;;;5112821;28;20417;-54
2022/03/23 10:23:06;;;;;;;43.87;25.00;;;;;;;;;;5113074;28;20397;-54
2022/03/23 10:25:32;;;;;;;47.17;25.83;;;;;;;;;;5113001;28;20496;-54
2022/03/23 10:27:58;;;;;;;42.83;25.37;;;;;;;;;;5092763;28;20486;-53
2022/03/23 10:30:34;;;;;;;42.40;25.40;;;;;;;;;;5092598;28;20409;-55
2022/03/23 10:33:00;;;;;;;47.43;25.07;;;;;;;;;;5092463;28;20453;-55
2022/03/23 10:35:35;;;;;;;48.00;25.57;;;;;;;;;;5092591;28;20414;-55
2022/03/23 10:38:09;;;;;;;43.13;26.00;;;;;;;;;;5092285;28;20406;-54
2022/03/23 10:40:35;;;;;;;46.40;26.07;;;;;;;;;;5092216;28;20402;-53
2022/03/23 10:43:01;;;;;;;40.80;25.33;;;;;;;;;;5091864;28;20402;-56
2022/03/23 10:45:31;;;;;;;55.83;25.73;;;;;;;;;;5092444;28;20406;-54
2022/03/23 10:48:07;;;;;;;49.03;26.40;;;;;;;;;;5092620;28;20410;-62
2022/03/23 10:50:34;;;;;;;45.27;24.97;;;;;;;;;;5092449;28;20413;-63
2022/03/23 10:53:01;;;;;;;43.80;25.70;;;;;;;;;;5092187;28;20465;-57
2022/03/23 10:55:37;;;;;;;43.30;26.53;;;;;;;;;;5092551;28;20437;-60
2022/03/23 10:58:18;;;;;;;43.53;25.23;;;;;;;;;;5075671;28;20405;-55
2022/03/23 11:00:44;;;;;;;44.70;27.63;;;;;;;;;;5094298;28;20507;-56
2022/03/23 11:03:10;;;;;;;40.97;25.60;;;;;;;;;;5112369;28;20397;-59
2022/03/23 11:05:41;;;;;;;49.03;27.30;;;;;;;;;;5112523;28;20409;-56
2022/03/23 11:08:19;;;;;;;39.00;25.90;;;;;;;;;;5093782;28;20413;-61
2022/03/23 11:16:24;;;;;;;42.50;27.00;;;;;;;;;;5091959;28;20396;-54
2022/03/23 11:18:57;;;;;;;41.10;25.70;;;;;;;;;;5091451;28;20461;-56
2022/03/23 11:21:23;;;;;;;41.70;26.60;;;;;;;;;;5091803;28;20447;-56
2022/03/23 11:23:49;;;;;;;43.97;26.07;;;;;;;;;;5091576;28;20405;-55
2022/03/23 11:26:15;;;;;;;42.27;26.93;;;;;;;;;;5097436;28;20449;-59
2022/03/23 11:28:44;;;;;;;47.80;27.10;;;;;;;;;;5111992;28;20499;-57
2022/03/23 11:31:11;;;;;;;43.77;26.47;;;;;;;;;;5111977;28;20404;-61
2022/03/23 11:33:38;;;;;;;41.97;27.87;;;;;;;;;;5111846;28;20479;-57
2022/03/23 11:36:09;;;;;;;48.60;27.93;;;;;;;;;;5111853;28;20432;-56
2022/03/23 11:38:37;;;;;;;49.40;27.47;;;;;;;;;;5111853;28;20431;-55
2022/03/23 11:41:03;;;;;;;45.33;27.73;;;;;;;;;;5111808;28;20413;-54
2022/03/23 11:43:29;;;;;;;51.10;28.40;;;;;;;;;;5111762;28;20758;-55
2022/03/23 11:45:56;;;;;;;45.73;28.33;;;;;;;;;;5111887;28;20925;-55
2022/03/23 11:48:52;;;;;;;43.97;27.23;;;;;;;;;;5111819;28;20411;-54
2022/03/23 11:51:43;;;;;;;43.97;27.17;;;;;;;;;;5022524;28;20965;-55
2022/03/23 11:55:36;;;;;;;50.90;27.97;;;;;;;;;;5113020;28;20553;-55
2022/03/23 11:57:16;;;;;;;42.93;26.50;;;;;;;;;;5115276;28;20405;-57
2022/03/23 11:59:43;;;;;;;47.00;27.60;;;;;;;;;;5115522;28;20576;-58
2022/03/23 12:02:09;;;;;;;47.57;28.10;;;;;;;;;;5115627;28;20393;-56
2022/03/23 12:04:38;;;;;;;46.03;27.40;;;;;;;;;;5115711;28;20401;-61
2022/03/23 12:07:06;;;;;;;55.90;28.70;;;;;;;;;;5115871;28;20400;-56
2022/03/23 12:09:34;;;;;;;46.87;27.37;;;;;;;;;;5115569;28;20408;-57
2022/03/23 12:12:00;;;;;;;52.03;29.50;;;;;;;;;;5096885;28;20417;-55
2022/03/23 12:14:37;;;;;;;45.97;29.50;;;;;;;;;;5115607;28;20472;-53
2022/03/23 12:17:12;;;;;;;49.23;28.60;;;;;;;;;;5115557;28;20762;-55
2022/03/23 12:19:54;;;;;;;45.80;29.07;;;;;;;;;;5115315;28;20452;-56
2022/03/23 12:22:32;;;;;;;43.53;26.90;;;;;;;;;;5097107;28;20412;-57
2022/03/23 12:25:17;;;;;;;46.13;29.40;;;;;;;;;;5115556;28;20400;-54
2022/03/23 12:27:50;;;;;;;43.83;29.10;;;;;;;;;;5114878;28;20547;-54
2022/03/23 12:30:24;;;;;;;44.70;28.90;;;;;;;;;;5115151;28;20900;-61
2022/03/23 12:32:50;;;;;;;47.77;29.93;;;;;;;;;;5115099;28;20467;-58
2022/03/23 12:35:16;;;;;;;48.77;28.30;;;;;;;;;;5115089;28;20405;-60
2022/03/23 12:37:43;;;;;;;47.50;30.60;;;;;;;;;;5115005;28;20457;-57
2022/03/23 12:40:09;;;;;;;45.43;30.00;;;;;;;;;;5114720;28;20420;-57
2022/03/23 12:42:43;;;;;;;47.10;30.00;;;;;;;;;;5114958;28;20788;-56
2022/03/23 12:45:10;;;;;;;39.57;27.70;;;;;;;;;;5096615;28;20492;-55
2022/03/23 12:47:39;;;;;;;45.40;29.50;;;;;;;;;;5114847;28;20400;-56
2022/03/23 12:58:37;;;;;;;49.00;29.10;;;;;;;;;;5115053;28;20912;-56
2022/03/23 13:01:09;;;;;;;60.93;31.33;;;;;;;;;;5096293;28;20408;-58
2022/03/23 13:03:41;;;;;;;55.23;30.50;;;;;;;;;;5114293;28;20420;-56
2022/03/23 13:06:09;;;;;;;45.37;29.53;;;;;;;;;;5095502;28;20458;-58
2022/03/23 13:08:38;;;;;;;52.20;31.60;;;;;;;;;;5114292;28;20901;-58
2022/03/23 13:11:07;;;;;;;54.03;30.07;;;;;;;;;;5114130;28;20540;-53
2022/03/23 13:13:36;;;;;;;43.73;29.40;;;;;;;;;;5114083;28;20463;-57
2022/03/23 13:16:03;;;;;;;45.67;29.80;;;;;;;;;;5113985;28;20424;-55
2022/03/23 13:18:30;;;;;;;43.40;29.00;;;;;;;;;;5095677;28;20457;-55
2022/03/23 13:20:57;;;;;;;49.77;28.30;;;;;;;;;;5114210;28;20844;-56
2022/03/23 13:23:25;;;;;;;51.73;31.13;;;;;;;;;;5113959;28;20747;-57
2022/03/23 13:26:20;;;;;;;44.43;29.03;;;;;;;;;;5113687;28;20409;-56
2022/03/23 13:28:59;;;;;;;50.50;27.87;;;;;;;;;;5092249;28;20425;-57
2022/03/23 13:31:31;;;;;;;43.87;29.40;;;;;;;;;;5114111;28;20407;-58
2022/03/23 13:33:57;;;;;;;41.43;28.53;;;;;;;;;;5113900;28;20461;-56
2022/03/23 13:36:24;;;;;;;43.77;28.50;;;;;;;;;;5113821;28;20409;-57
2022/03/23 13:38:51;;;;;;;44.43;28.00;;;;;;;;;;5113743;28;21142;-57
2022/03/23 13:44:03;;;;;;;42.37;28.23;;;;;;;;;;5113855;28;20395;-59
2022/03/23 13:46:30;;;;;;;39.27;26.90;;;;;;;;;;5113500;28;20405;-56
2022/03/23 13:49:01;;;;;;;38.20;26.73;;;;;;;;;;5095565;28;20786;-58
2022/03/23 13:51:28;;;;;;;37.73;26.70;;;;;;;;;;5113894;28;20412;-59
2022/03/23 13:54:00;;;;;;;38.50;25.67;;;;;;;;;;5095164;28;20493;-59
2022/03/23 13:56:28;;;;;;;49.90;26.80;;;;;;;;;;5113527;28;20981;-62
2022/03/23 13:58:54;;;;;;;41.83;25.20;;;;;;;;;;5113618;28;20405;-57
2022/03/23 14:01:22;;;;;;;38.80;24.73;;;;;;;;;;5113106;28;20405;-57
2022/03/23 14:03:50;;;;;;;32.10;23.67;;;;;;;;;;5113184;28;20420;-56
2022/03/23 14:06:18;;;;;;;44.10;24.90;;;;;;;;;;5113449;28;20404;-58
2022/03/23 14:08:52;;;;;;;36.63;24.60;;;;;;;;;;5113181;28;20417;-58
2022/03/23 14:11:19;;;;;;;39.57;25.30;;;;;;;;;;5112964;28;20405;-53
2022/03/23 14:13:52;;;;;;;32.43;24.40;;;;;;;;;;5112925;28;20460;-54
2022/03/23 14:16:23;;;;;;;41.27;25.83;;;;;;;;;;5094077;28;20417;-56
2022/03/23 14:18:49;;;;;;;39.53;25.70;;;;;;;;;;5094348;28;20455;-60
2022/03/23 14:21:21;;;;;;;35.70;25.63;;;;;;;;;;5112624;28;20492;-58
2022/03/23 14:23:47;;;;;;;41.43;24.60;;;;;;;;;;5094567;28;20449;-57
2022/03/23 14:26:26;;;;;;;38.30;24.40;;;;;;;;;;5112230;28;20413;-57
2022/03/23 14:28:52;;;;;;;43.13;24.13;;;;;;;;;;5112848;28;20470;-53
2022/03/23 14:31:22;;;;;;;36.93;23.60;;;;;;;;;;5112521;28;20398;-59
2022/03/23 14:34:01;;;;;;;35.03;24.70;;;;;;;;;;5112231;28;20471;-58
2022/03/23 14:36:29;;;;;;;35.43;24.87;;;;;;;;;;5113015;28;20400;-55
2022/03/23 14:38:57;;;;;;;34.77;24.97;;;;;;;;;;5113053;28;20412;-56
2022/03/23 14:41:25;;;;;;;35.93;24.10;;;;;;;;;;5112677;28;20814;-56
2022/03/23 14:43:54;;;;;;;37.40;23.53;;;;;;;;;;5112679;28;20913;-56
2022/03/23 14:46:27;;;;;;;34.50;22.80;;;;;;;;;;5112915;28;20762;-57
2022/03/23 14:49:01;;;;;;;35.63;23.47;;;;;;;;;;5094869;28;20458;-55
2022/03/23 14:51:27;;;;;;;38.47;22.63;;;;;;;;;;5094439;28;20436;-54
2022/03/23 14:53:53;;;;;;;30.67;21.30;;;;;;;;;;5093664;28;20476;-56